createdAt,value
2024-05-09T00:00:22.479Z,8.09
2024-05-09T00:01:19.356Z,8.08
2024-05-09T00:02:17.487Z,8.06
2024-05-09T00:03:17.303Z,8.06
2024-05-09T00:04:17.337Z,8.02
2024-05-09T00:05:17.305Z,7.91
2024-05-09T00:06:17.320Z,7.98
2024-05-09T00:07:17.244Z,8.02
2024-05-09T00:08:17.272Z,7.91
2024-05-09T00:09:17.249Z,7.84
2024-05-09T00:10:25.347Z,7.91
2024-05-09T00:11:19.300Z,7.95
2024-05-09T00:12:17.308Z,7.83
2024-05-09T00:13:17.173Z,7.84
2024-05-09T00:14:17.216Z,7.75
2024-05-09T00:15:17.244Z,7.70
2024-05-09T00:16:17.196Z,7.59
2024-05-09T00:17:17.236Z,7.70
2024-05-09T00:18:17.350Z,7.78
2024-05-09T00:19:17.281Z,7.85
2024-05-09T00:20:23.969Z,7.93
2024-05-09T00:21:19.147Z,7.91
2024-05-09T00:22:17.122Z,7.90
2024-05-09T00:23:17.090Z,7.81
2024-05-09T00:24:17.080Z,7.69
2024-05-09T00:25:17.061Z,7.67
2024-05-09T00:26:17.168Z,7.55
2024-05-09T00:27:17.041Z,7.59
2024-05-09T00:28:17.032Z,7.48
2024-05-09T00:29:17.110Z,7.50
2024-05-09T00:30:24.370Z,7.40
2024-05-09T00:31:19.033Z,7.36
2024-05-09T00:32:17.137Z,7.19
2024-05-09T00:33:17.110Z,7.15
2024-05-09T00:34:17.098Z,7.18
2024-05-09T00:35:16.989Z,7.19
2024-05-09T00:36:16.959Z,7.25
2024-05-09T00:37:16.936Z,7.29
2024-05-09T00:38:17.007Z,7.29
2024-05-09T00:39:16.934Z,7.07
2024-05-09T00:40:26.452Z,7.05
2024-05-09T00:41:19.885Z,7.01
2024-05-09T00:42:17.894Z,6.92
2024-05-09T00:43:16.889Z,7.03
2024-05-09T00:44:16.881Z,7.03
2024-05-09T00:45:16.849Z,7.03
2024-05-09T00:46:16.829Z,6.89
2024-05-09T00:47:16.934Z,6.89
2024-05-09T00:48:19.758Z,6.89
2024-05-09T00:49:16.950Z,6.82
2024-05-09T00:50:22.938Z,6.75
2024-05-09T00:51:17.844Z,6.82
2024-05-09T00:52:16.775Z,6.87
2024-05-09T00:53:16.781Z,7.05
2024-05-09T00:54:16.770Z,7.00
2024-05-09T00:55:16.750Z,7.07
2024-05-09T00:56:16.800Z,7.13
2024-05-09T00:57:16.727Z,7.04
2024-05-09T00:58:16.707Z,7.10
2024-05-09T00:59:16.786Z,7.08
2024-05-09T01:00:26.131Z,6.96
2024-05-09T01:01:18.732Z,7.03
2024-05-09T01:02:16.754Z,7.04
2024-05-09T01:03:16.916Z,7.18
2024-05-09T01:04:16.718Z,7.32
2024-05-09T01:05:16.800Z,7.22
2024-05-09T01:06:16.657Z,7.18
2024-05-09T01:07:16.607Z,7.29
2024-05-09T01:08:16.798Z,7.37
2024-05-09T01:09:16.614Z,7.33
2024-05-09T01:10:21.286Z,7.28
2024-05-09T01:11:18.728Z,7.23
2024-05-09T01:12:16.640Z,7.11
2024-05-09T01:13:16.588Z,7.05
2024-05-09T01:14:16.585Z,7.05
2024-05-09T01:15:16.549Z,6.96
2024-05-09T01:16:16.565Z,6.89
2024-05-09T01:17:16.775Z,6.89
2024-05-09T01:18:16.681Z,7.01
2024-05-09T01:19:16.649Z,7.00
2024-05-09T01:20:20.328Z,7.00
2024-05-09T01:21:18.584Z,6.85
2024-05-09T01:22:16.463Z,6.86
2024-05-09T01:23:16.837Z,6.70
2024-05-09T01:24:16.458Z,6.59
2024-05-09T01:25:16.443Z,6.65
2024-05-09T01:26:16.485Z,6.60
2024-05-09T01:27:16.438Z,6.64
2024-05-09T01:28:16.608Z,6.50
2024-05-09T01:29:16.475Z,6.67
2024-05-09T01:30:21.054Z,6.70
2024-05-09T01:31:18.364Z,6.62
2024-05-09T01:32:16.459Z,6.68
2024-05-09T01:33:16.630Z,6.70
2024-05-09T01:34:16.414Z,6.86
2024-05-09T01:35:16.510Z,6.92
2024-05-09T01:36:16.325Z,6.82
2024-05-09T01:37:16.300Z,6.90
2024-05-09T01:38:16.358Z,6.89
2024-05-09T01:39:16.321Z,6.78
2024-05-09T01:40:21.992Z,6.85
2024-05-09T01:41:17.292Z,6.82
2024-05-09T01:42:16.280Z,6.59
2024-05-09T01:43:16.272Z,6.47
2024-05-09T01:44:16.279Z,6.44
2024-05-09T01:45:16.228Z,6.46
2024-05-09T01:46:16.210Z,6.38
2024-05-09T01:47:16.332Z,6.41
2024-05-09T01:48:16.357Z,6.35
2024-05-09T01:49:16.399Z,6.32
2024-05-09T01:50:16.677Z,6.25
2024-05-09T01:51:17.297Z,6.28
2024-05-09T01:52:16.179Z,6.16
2024-05-09T01:53:16.274Z,6.13
2024-05-09T01:54:16.144Z,6.26
2024-05-09T01:55:16.130Z,6.41
2024-05-09T01:56:16.186Z,6.35
2024-05-09T01:57:16.124Z,6.34
2024-05-09T01:58:16.110Z,6.36
2024-05-09T01:59:16.132Z,6.43
2024-05-09T02:00:22.237Z,6.36
2024-05-09T02:01:17.095Z,6.31
2024-05-09T02:02:16.249Z,6.28
2024-05-09T02:03:17.681Z,6.20
2024-05-09T02:04:16.209Z,6.10
2024-05-09T02:05:16.324Z,6.02
2024-05-09T02:06:16.028Z,6.01
2024-05-09T02:07:16.032Z,6.01
2024-05-09T02:08:16.156Z,5.95
2024-05-09T02:09:15.978Z,6.07
2024-05-09T02:10:20.491Z,5.98
2024-05-09T02:11:18.011Z,5.80
2024-05-09T02:12:16.094Z,5.79
2024-05-09T02:13:16.351Z,5.84
2024-05-09T02:14:15.961Z,6.10
2024-05-09T02:15:15.903Z,6.09
2024-05-09T02:16:15.907Z,6.09
2024-05-09T02:17:16.055Z,6.26
2024-05-09T02:18:16.005Z,6.26
2024-05-09T02:19:16.020Z,6.13
2024-05-09T02:20:22.626Z,6.06
2024-05-09T02:21:17.882Z,6.13
2024-05-09T02:22:15.848Z,6.05
2024-05-09T02:23:15.843Z,6.12
2024-05-09T02:24:15.803Z,6.12
2024-05-09T02:25:15.785Z,6.12
2024-05-09T02:26:15.890Z,6.17
2024-05-09T02:27:15.799Z,6.09
2024-05-09T02:28:15.746Z,6.09
2024-05-09T02:29:15.803Z,5.97
2024-05-09T02:30:22.831Z,5.94
2024-05-09T02:31:16.751Z,5.97
2024-05-09T02:32:15.751Z,6.07
2024-05-09T02:33:15.819Z,6.22
2024-05-09T02:34:15.767Z,6.15
2024-05-09T02:35:15.722Z,6.17
2024-05-09T02:36:15.671Z,6.10
2024-05-09T02:37:15.649Z,6.12
2024-05-09T02:38:15.707Z,6.12
2024-05-09T02:39:15.658Z,6.15
2024-05-09T02:40:21.628Z,6.16
2024-05-09T02:41:16.676Z,6.02
2024-05-09T02:42:15.614Z,6.07
2024-05-09T02:43:15.641Z,5.94
2024-05-09T02:44:15.633Z,5.92
2024-05-09T02:45:15.577Z,5.99
2024-05-09T02:46:15.560Z,5.90
2024-05-09T02:47:16.667Z,5.87
2024-05-09T02:48:15.632Z,5.73
2024-05-09T02:49:15.800Z,5.64
2024-05-09T02:50:23.011Z,5.58
2024-05-09T02:51:17.539Z,5.59
2024-05-09T02:52:15.484Z,5.37
2024-05-09T02:53:15.571Z,5.28
2024-05-09T02:54:15.474Z,5.23
2024-05-09T02:55:15.489Z,5.43
2024-05-09T02:56:15.542Z,5.54
2024-05-09T02:57:15.470Z,5.41
2024-05-09T02:58:15.432Z,5.36
2024-05-09T02:59:15.484Z,5.41
2024-05-09T03:00:22.530Z,5.61
2024-05-09T03:01:17.478Z,5.58
2024-05-09T03:02:15.464Z,5.55
2024-05-09T03:03:15.974Z,5.64
2024-05-09T03:04:15.403Z,5.88
2024-05-09T03:05:15.431Z,5.94
2024-05-09T03:06:15.382Z,6.01
2024-05-09T03:07:15.372Z,6.01
2024-05-09T03:08:15.481Z,5.98
2024-05-09T03:09:15.344Z,5.95
2024-05-09T03:10:22.231Z,6.05
2024-05-09T03:11:16.392Z,6.06
2024-05-09T03:12:15.307Z,5.95
2024-05-09T03:13:16.313Z,5.98
2024-05-09T03:14:15.312Z,6.02
2024-05-09T03:15:15.281Z,6.07
2024-05-09T03:16:15.274Z,5.99
2024-05-09T03:17:15.275Z,5.98
2024-05-09T03:18:15.609Z,5.98
2024-05-09T03:19:15.293Z,5.79
2024-05-09T03:20:20.704Z,5.88
2024-05-09T03:21:16.290Z,5.81
2024-05-09T03:22:15.207Z,5.84
2024-05-09T03:23:15.258Z,5.81
2024-05-09T03:24:15.189Z,5.77
2024-05-09T03:25:15.164Z,5.79
2024-05-09T03:26:15.209Z,5.79
2024-05-09T03:27:15.199Z,5.69
2024-05-09T03:28:15.159Z,5.67
2024-05-09T03:29:15.251Z,5.62
2024-05-09T03:30:28.779Z,5.47
2024-05-09T03:31:17.174Z,5.49
2024-05-09T03:32:15.131Z,5.44
2024-05-09T03:33:15.972Z,5.40
2024-05-09T03:34:15.090Z,5.40
2024-05-09T03:35:15.146Z,5.38
2024-05-09T03:36:15.112Z,5.40
2024-05-09T03:37:15.069Z,5.36
2024-05-09T03:38:15.426Z,5.33
2024-05-09T03:39:15.025Z,5.16
2024-05-09T03:40:20.856Z,5.37
2024-05-09T03:41:16.024Z,5.51
2024-05-09T03:42:14.976Z,5.49
2024-05-09T03:43:14.992Z,5.43
2024-05-09T03:44:15.026Z,5.34
2024-05-09T03:45:14.938Z,5.38
2024-05-09T03:46:14.978Z,5.41
2024-05-09T03:47:15.078Z,5.52
2024-05-09T03:48:15.110Z,5.38
2024-05-09T03:49:15.033Z,5.37
2024-05-09T03:50:22.043Z,5.38
2024-05-09T03:51:16.962Z,5.38
2024-05-09T03:52:14.881Z,5.22
2024-05-09T03:53:15.063Z,5.33
2024-05-09T03:54:14.867Z,5.47
2024-05-09T03:55:14.844Z,5.61
2024-05-09T03:56:14.927Z,5.58
2024-05-09T03:57:14.837Z,5.61
2024-05-09T03:58:14.828Z,5.52
2024-05-09T03:59:14.847Z,5.58
2024-05-09T04:00:21.927Z,5.55
2024-05-09T04:01:16.791Z,5.52
2024-05-09T04:02:14.957Z,5.47
2024-05-09T04:03:15.042Z,5.46
2024-05-09T04:04:14.876Z,5.46
2024-05-09T04:05:14.746Z,5.47
2024-05-09T04:06:14.756Z,5.52
2024-05-09T04:07:14.712Z,5.62
2024-05-09T04:08:15.147Z,5.54
2024-05-09T04:09:14.693Z,5.49
2024-05-09T04:10:23.676Z,5.59
2024-05-09T04:11:16.748Z,5.67
2024-05-09T04:12:14.784Z,5.65
2024-05-09T04:13:14.650Z,5.64
2024-05-09T04:14:14.698Z,5.76
2024-05-09T04:15:14.643Z,5.67
2024-05-09T04:16:47.098Z,5.73
2024-05-09T04:17:14.673Z,5.88
2024-05-09T04:18:14.674Z,5.80
2024-05-09T04:19:14.944Z,5.81
2024-05-09T04:20:24.278Z,5.74
2024-05-09T04:21:16.618Z,5.74
2024-05-09T04:22:15.558Z,5.81
2024-05-09T04:23:14.965Z,5.69
2024-05-09T04:24:14.578Z,5.79
2024-05-09T04:25:14.526Z,5.77
2024-05-09T04:26:14.582Z,5.74
2024-05-09T04:27:14.529Z,5.77
2024-05-09T04:28:14.597Z,5.76
2024-05-09T04:29:14.515Z,5.97
2024-05-09T04:30:21.731Z,5.91
2024-05-09T04:31:16.488Z,5.94
2024-05-09T04:32:14.548Z,5.94
2024-05-09T04:33:15.227Z,5.98
2024-05-09T04:34:14.692Z,6.06
2024-05-09T04:35:14.510Z,6.01
2024-05-09T04:36:14.432Z,6.22
2024-05-09T04:37:14.429Z,6.29
2024-05-09T04:38:15.188Z,6.29
2024-05-09T04:39:14.412Z,6.41
2024-05-09T04:40:23.965Z,6.36
2024-05-09T04:41:16.414Z,6.44
2024-05-09T04:42:14.397Z,6.34
2024-05-09T04:43:14.429Z,6.41
2024-05-09T04:44:14.351Z,6.41
2024-05-09T04:45:14.335Z,6.52
2024-05-09T04:46:14.342Z,6.53
2024-05-09T04:47:14.389Z,6.54
2024-05-09T04:48:14.592Z,6.59
2024-05-09T04:49:14.626Z,6.65
2024-05-09T04:50:21.188Z,6.71
2024-05-09T04:51:16.352Z,6.74
2024-05-09T04:52:14.278Z,6.74
2024-05-09T04:53:14.297Z,6.80
2024-05-09T04:54:26.019Z,6.77
2024-05-09T04:55:16.231Z,7.04
2024-05-09T04:56:14.350Z,7.23
2024-05-09T04:57:14.220Z,7.33
2024-05-09T04:58:14.196Z,7.41
2024-05-09T04:59:14.305Z,7.48
2024-05-09T05:00:18.067Z,7.55
2024-05-09T05:01:16.276Z,7.51
2024-05-09T05:02:14.311Z,7.56
2024-05-09T05:03:15.915Z,7.61
2024-05-09T05:04:14.217Z,7.69
2024-05-09T05:05:14.272Z,7.74
2024-05-09T05:06:14.115Z,7.75
2024-05-09T05:07:14.106Z,7.87
2024-05-09T05:08:14.566Z,7.84
2024-05-09T05:09:14.067Z,7.83
2024-05-09T05:10:21.418Z,7.90
2024-05-09T05:11:16.168Z,7.99
2024-05-09T05:12:14.145Z,8.09
2024-05-09T05:13:14.054Z,8.13
2024-05-09T05:14:14.102Z,8.16
2024-05-09T05:15:14.022Z,8.26
2024-05-09T05:16:14.017Z,8.27
2024-05-09T05:17:14.065Z,8.21
2024-05-09T05:18:15.143Z,8.39
2024-05-09T05:19:16.967Z,8.49
2024-05-09T05:20:18.051Z,8.45
2024-05-09T05:21:16.020Z,8.53
2024-05-09T05:22:13.954Z,8.63
2024-05-09T05:23:14.278Z,8.64
2024-05-09T05:24:13.967Z,8.71
2024-05-09T05:25:13.922Z,8.78
2024-05-09T05:26:14.010Z,8.77
2024-05-09T05:27:13.912Z,9.00
2024-05-09T05:28:13.897Z,8.86
2024-05-09T05:29:14.403Z,9.05
2024-05-09T05:30:21.129Z,9.11
2024-05-09T05:31:15.862Z,9.12
2024-05-09T05:32:14.138Z,9.30
2024-05-09T05:33:14.101Z,9.33
2024-05-09T05:34:13.932Z,9.29
2024-05-09T05:35:13.915Z,9.37
2024-05-09T05:36:13.828Z,9.40
2024-05-09T05:37:13.788Z,9.37
2024-05-09T05:38:13.820Z,9.39
2024-05-09T05:39:13.817Z,9.59
2024-05-09T05:40:24.609Z,9.51
2024-05-09T05:41:15.823Z,9.64
2024-05-09T05:42:13.749Z,9.69
2024-05-09T05:43:13.714Z,9.76
2024-05-09T05:44:13.766Z,9.81
2024-05-09T05:45:13.703Z,9.94
2024-05-09T05:46:13.704Z,10.06
2024-05-09T05:47:13.807Z,10.02
2024-05-09T05:48:14.067Z,10.12
2024-05-09T05:49:13.843Z,10.20
2024-05-09T05:50:23.788Z,10.25
2024-05-09T05:51:15.853Z,10.23
2024-05-09T05:52:13.647Z,10.30
2024-05-09T05:53:13.796Z,10.31
2024-05-09T05:54:13.633Z,10.31
2024-05-09T05:55:13.624Z,10.36
2024-05-09T05:56:13.673Z,10.33
2024-05-09T05:57:13.591Z,10.18
2024-05-09T05:58:13.564Z,10.18
2024-05-09T05:59:15.145Z,10.24
2024-05-09T06:01:14.601Z,10.27
2024-05-09T06:02:13.830Z,10.18
2024-05-09T06:03:14.286Z,10.27
2024-05-09T06:04:13.657Z,10.33
2024-05-09T06:05:13.591Z,10.33
2024-05-09T06:06:13.656Z,10.48
2024-05-09T06:07:13.507Z,10.49
2024-05-09T06:08:13.530Z,10.58
2024-05-09T06:09:13.481Z,10.48
2024-05-09T06:10:20.963Z,10.58
2024-05-09T06:11:15.505Z,10.62
2024-05-09T06:12:13.516Z,10.61
2024-05-09T06:13:14.258Z,10.57
2024-05-09T06:14:13.566Z,10.59
2024-05-09T06:15:13.415Z,10.69
2024-05-09T06:16:13.399Z,10.69
2024-05-09T06:17:13.555Z,10.72
2024-05-09T06:18:13.597Z,10.84
2024-05-09T06:19:13.555Z,10.86
2024-05-09T06:20:20.473Z,10.98
2024-05-09T06:21:15.473Z,10.94
2024-05-09T06:22:13.328Z,11.05
2024-05-09T06:23:13.649Z,10.98
2024-05-09T06:24:13.327Z,10.98
2024-05-09T06:25:13.312Z,11.04
2024-05-09T06:26:13.363Z,11.04
2024-05-09T06:27:13.294Z,11.19
2024-05-09T06:28:13.257Z,11.05
2024-05-09T06:29:13.258Z,11.07
2024-05-09T06:30:24.810Z,11.05
2024-05-09T06:31:15.263Z,11.01
2024-05-09T06:32:13.244Z,11.26
2024-05-09T06:33:15.427Z,11.31
2024-05-09T06:34:13.264Z,11.41
2024-05-09T06:35:13.248Z,11.40
2024-05-09T06:36:13.227Z,11.45
2024-05-09T06:37:13.199Z,11.56
2024-05-09T06:38:13.395Z,11.65
2024-05-09T06:39:13.146Z,11.85
2024-05-09T06:40:17.386Z,11.91
2024-05-09T06:41:13.143Z,11.96
2024-05-09T06:42:13.101Z,12.02
2024-05-09T06:43:13.306Z,12.05
2024-05-09T06:44:13.190Z,12.15
2024-05-09T06:45:13.084Z,12.28
2024-05-09T06:46:13.082Z,12.32
2024-05-09T06:47:13.113Z,12.54
2024-05-09T06:48:13.266Z,12.55
2024-05-09T06:49:13.113Z,12.73
2024-05-09T06:50:22.928Z,12.72
2024-05-09T06:51:14.190Z,12.76
2024-05-09T06:52:13.018Z,12.99
2024-05-09T06:53:13.037Z,13.12
2024-05-09T06:54:12.975Z,13.11
2024-05-09T06:55:12.998Z,13.20
2024-05-09T06:56:13.004Z,13.30
2024-05-09T06:57:12.934Z,13.26
2024-05-09T06:58:13.009Z,13.11
2024-05-09T06:59:12.958Z,13.09
2024-05-09T07:00:19.109Z,13.03
2024-05-09T07:01:14.951Z,12.88
2024-05-09T07:02:12.946Z,12.80
2024-05-09T07:03:14.866Z,12.81
2024-05-09T07:04:13.056Z,12.75
2024-05-09T07:05:13.010Z,12.91
2024-05-09T07:06:12.898Z,12.95
2024-05-09T07:07:12.847Z,13.21
2024-05-09T07:08:13.037Z,13.19
2024-05-09T07:09:12.833Z,13.30
2024-05-09T07:10:18.075Z,13.52
2024-05-09T07:11:14.871Z,13.62
2024-05-09T07:12:12.859Z,13.80
2024-05-09T07:13:12.869Z,13.86
2024-05-09T07:14:12.807Z,13.91
2024-05-09T07:15:12.765Z,14.03
2024-05-09T07:16:12.763Z,14.18
2024-05-09T07:17:12.804Z,14.08
2024-05-09T07:18:13.246Z,14.28
2024-05-09T07:19:12.943Z,14.31
2024-05-09T07:20:22.980Z,14.15
2024-05-09T07:21:14.776Z,13.86
2024-05-09T07:22:12.664Z,13.85
2024-05-09T07:23:12.911Z,13.70
2024-05-09T07:24:12.652Z,13.55
2024-05-09T07:25:12.705Z,13.75
2024-05-09T07:26:12.695Z,13.68
2024-05-09T07:27:12.622Z,13.70
2024-05-09T07:28:12.604Z,13.79
2024-05-09T07:29:12.648Z,13.82
2024-05-09T07:30:16.695Z,13.80
2024-05-09T07:31:13.582Z,13.80
2024-05-09T07:32:12.635Z,13.89
2024-05-09T07:33:12.655Z,13.95
2024-05-09T07:34:12.752Z,14.11
2024-05-09T07:35:12.564Z,14.08
2024-05-09T07:36:12.514Z,14.08
2024-05-09T07:37:12.530Z,14.18
2024-05-09T07:38:12.498Z,14.26
2024-05-09T07:39:12.494Z,14.22
2024-05-09T07:40:21.218Z,14.36
2024-05-09T07:41:13.877Z,14.52
2024-05-09T07:42:12.439Z,14.55
2024-05-09T07:43:12.422Z,14.70
2024-05-09T07:44:12.446Z,14.68
2024-05-09T07:45:29.812Z,14.52
2024-05-09T07:48:28.053Z,14.51
2024-05-09T07:49:45.013Z,14.58
2024-05-09T07:53:29.320Z,14.67
2024-05-09T07:53:37.582Z,14.73
2024-05-09T07:54:14.471Z,14.67
2024-05-09T07:55:12.437Z,14.85
2024-05-09T07:56:12.748Z,14.79
2024-05-09T07:57:12.313Z,14.79
2024-05-09T07:58:12.319Z,14.92
2024-05-09T07:59:12.308Z,14.94
2024-05-09T08:00:17.207Z,15.04
2024-05-09T08:01:13.379Z,15.19
2024-05-09T08:02:12.318Z,15.11
2024-05-09T08:03:12.299Z,15.18
2024-05-09T08:04:12.318Z,15.15
2024-05-09T08:05:12.448Z,15.27
2024-05-09T08:06:12.229Z,15.45
2024-05-09T08:07:12.258Z,15.62
2024-05-09T08:08:12.161Z,15.76
2024-05-09T08:09:16.967Z,15.88
2024-05-09T08:10:18.734Z,16.03
2024-05-09T08:11:13.183Z,16.08
2024-05-09T08:12:12.161Z,15.90
2024-05-09T08:13:12.283Z,15.85
2024-05-09T08:14:12.108Z,15.83
2024-05-09T08:15:12.102Z,15.91
2024-05-09T08:16:12.122Z,15.91
2024-05-09T08:17:12.144Z,16.06
2024-05-09T08:18:12.228Z,16.21
2024-05-09T08:19:12.255Z,16.46
2024-05-09T08:20:18.716Z,16.65
2024-05-09T08:21:13.035Z,16.68
2024-05-09T08:22:12.069Z,16.65
2024-05-09T08:23:12.046Z,16.84
2024-05-09T08:24:12.013Z,16.97
2024-05-09T08:25:13.977Z,17.09
2024-05-09T08:26:13.004Z,17.30
2024-05-09T08:27:11.953Z,17.35
2024-05-09T08:28:12.205Z,17.44
2024-05-09T08:29:12.020Z,17.56
2024-05-09T08:30:19.012Z,17.60
2024-05-09T08:31:13.988Z,17.54
2024-05-09T08:32:11.944Z,17.63
2024-05-09T08:33:11.940Z,17.80
2024-05-09T08:34:12.053Z,17.90
2024-05-09T08:35:11.895Z,18.18
2024-05-09T08:36:11.977Z,18.13
2024-05-09T08:37:19.414Z,18.13
2024-05-09T08:38:13.895Z,18.34
2024-05-09T08:39:11.868Z,18.48
2024-05-09T08:40:23.445Z,18.61
2024-05-09T08:41:13.802Z,18.76
2024-05-09T08:42:11.805Z,18.94
2024-05-09T08:43:12.992Z,19.07
2024-05-09T08:44:11.778Z,19.16
2024-05-09T08:45:11.793Z,19.29
2024-05-09T08:46:11.850Z,19.39
2024-05-09T08:47:11.803Z,19.20
2024-05-09T08:48:11.872Z,19.49
2024-05-09T08:49:11.948Z,19.70
2024-05-09T08:50:24.047Z,19.74
2024-05-09T08:51:13.708Z,19.60
2024-05-09T08:52:11.821Z,19.47
2024-05-09T08:53:11.696Z,19.55
2024-05-09T08:54:11.686Z,19.42
2024-05-09T08:55:11.687Z,19.44
2024-05-09T08:56:11.824Z,19.39
2024-05-09T08:57:11.643Z,19.08
2024-05-09T08:58:11.888Z,18.97
2024-05-09T08:59:11.639Z,18.86
2024-05-09T09:00:15.097Z,19.11
2024-05-09T09:01:13.754Z,19.30
2024-05-09T09:02:11.726Z,19.23
2024-05-09T09:03:11.682Z,19.34
2024-05-09T09:04:12.892Z,19.42
2024-05-09T09:05:12.688Z,19.60
2024-05-09T09:06:11.680Z,19.20
2024-05-09T09:07:11.597Z,19.34
2024-05-09T09:08:11.560Z,19.42
2024-05-09T09:09:11.543Z,19.55
2024-05-09T09:10:17.595Z,19.92
2024-05-09T09:11:12.596Z,20.00
2024-05-09T09:12:11.538Z,20.21
2024-05-09T09:13:11.675Z,20.14
2024-05-09T09:14:11.474Z,20.30
2024-05-09T09:15:11.467Z,20.40
2024-05-09T09:16:11.550Z,20.74
2024-05-09T09:17:11.531Z,20.75
2024-05-09T09:18:12.428Z,21.07
2024-05-09T09:19:12.654Z,20.89
2024-05-09T09:20:16.431Z,21.13
2024-05-09T09:21:13.422Z,20.89
2024-05-09T09:22:11.516Z,21.00
2024-05-09T09:23:11.383Z,20.77
2024-05-09T09:24:11.391Z,20.59
2024-05-09T09:25:11.424Z,20.77
2024-05-09T09:26:11.349Z,20.29
2024-05-09T09:27:11.360Z,20.04
2024-05-09T09:28:11.382Z,19.94
2024-05-09T09:29:11.337Z,20.10
2024-05-09T09:30:26.894Z,20.29
2024-05-09T09:31:13.396Z,20.26
2024-05-09T09:32:11.284Z,19.84
2024-05-09T09:33:11.786Z,19.84
2024-05-09T09:34:11.502Z,20.18
2024-05-09T09:35:11.264Z,20.08
2024-05-09T09:36:11.726Z,20.21
2024-05-09T09:37:12.380Z,20.40
2024-05-09T09:38:11.317Z,20.56
2024-05-09T09:39:11.216Z,20.66
2024-05-09T09:40:13.177Z,20.74
2024-05-09T09:41:11.275Z,20.83
2024-05-09T09:42:11.176Z,20.96
2024-05-09T09:43:11.382Z,20.58
2024-05-09T09:44:11.191Z,20.04
2024-05-09T09:45:11.149Z,20.30
2024-05-09T09:46:12.761Z,20.49
2024-05-09T09:47:11.154Z,20.36
2024-05-09T09:48:11.235Z,20.34
2024-05-09T09:49:11.305Z,20.71
2024-05-09T09:50:14.499Z,21.05
2024-05-09T09:51:13.079Z,21.13
2024-05-09T09:52:11.457Z,21.22
2024-05-09T09:53:12.063Z,21.33
2024-05-09T09:54:11.133Z,21.44
2024-05-09T09:55:11.204Z,21.58
2024-05-09T09:56:11.099Z,21.62
2024-05-09T09:57:11.039Z,21.70
2024-05-09T09:58:13.497Z,21.72
2024-05-09T09:59:11.062Z,21.70
2024-05-09T10:00:11.988Z,21.91
2024-05-09T10:01:13.102Z,22.03
2024-05-09T10:02:11.244Z,22.31
2024-05-09T10:03:11.013Z,22.40
2024-05-09T10:04:11.035Z,22.49
2024-05-09T10:05:11.151Z,22.70
2024-05-09T10:06:11.946Z,22.92
2024-05-09T10:07:11.049Z,22.98
2024-05-09T10:08:10.931Z,23.10
2024-05-09T10:09:10.919Z,23.21
2024-05-09T10:10:14.022Z,23.48
2024-05-09T10:11:12.937Z,23.44
2024-05-09T10:12:11.047Z,23.39
2024-05-09T10:13:10.934Z,23.33
2024-05-09T10:14:10.880Z,23.29
2024-05-09T10:15:10.847Z,23.42
2024-05-09T10:16:10.985Z,23.21
2024-05-09T10:17:10.875Z,23.32
2024-05-09T10:18:10.922Z,23.47
2024-05-09T10:19:10.890Z,23.48
2024-05-09T10:20:18.323Z,23.63
2024-05-09T10:21:12.827Z,23.76
2024-05-09T10:22:10.794Z,23.85
2024-05-09T10:23:10.756Z,23.92
2024-05-09T10:24:10.753Z,24.04
2024-05-09T10:25:10.850Z,24.18
2024-05-09T10:26:10.778Z,24.28
2024-05-09T10:27:10.781Z,23.88
2024-05-09T10:28:10.786Z,23.55
2024-05-09T10:29:10.673Z,23.48
2024-05-09T10:30:17.681Z,23.59
2024-05-09T10:31:12.713Z,23.82
2024-05-09T10:32:10.661Z,23.96
2024-05-09T10:33:10.806Z,24.29
2024-05-09T10:34:10.867Z,24.41
2024-05-09T10:35:10.733Z,24.32
2024-05-09T10:36:10.634Z,24.10
2024-05-09T10:37:10.695Z,23.85
2024-05-09T10:38:10.590Z,23.88
2024-05-09T10:39:10.606Z,23.96
2024-05-09T10:40:17.251Z,24.09
2024-05-09T10:41:12.551Z,23.74
2024-05-09T10:42:10.561Z,23.77
2024-05-09T10:43:10.563Z,23.85
2024-05-09T10:44:10.564Z,23.88
2024-05-09T10:45:10.523Z,24.34
2024-05-09T10:46:10.872Z,23.95
2024-05-09T10:47:10.546Z,23.82
2024-05-09T10:48:10.610Z,24.11
2024-05-09T10:49:10.561Z,24.07
2024-05-09T10:50:18.480Z,24.53
2024-05-09T10:51:12.495Z,24.88
2024-05-09T10:52:10.548Z,25.25
2024-05-09T10:53:10.440Z,25.44
2024-05-09T10:54:10.418Z,25.19
2024-05-09T10:55:10.557Z,24.89
2024-05-09T10:56:10.507Z,24.65
2024-05-09T10:57:10.433Z,24.38
2024-05-09T10:58:10.507Z,23.42
2024-05-09T10:59:10.431Z,23.56
2024-05-09T11:00:18.886Z,23.59
2024-05-09T11:01:12.495Z,23.44
2024-05-09T11:02:10.503Z,23.63
2024-05-09T11:03:10.338Z,23.86
2024-05-09T11:04:10.516Z,23.74
2024-05-09T11:05:10.456Z,23.95
2024-05-09T11:06:10.318Z,23.85
2024-05-09T11:07:10.392Z,23.48
2024-05-09T11:08:10.297Z,23.29
2024-05-09T11:09:10.371Z,23.48
2024-05-09T11:10:14.502Z,23.69
2024-05-09T11:11:11.295Z,23.91
2024-05-09T11:12:10.411Z,24.01
2024-05-09T11:13:10.345Z,24.03
2024-05-09T11:14:10.222Z,24.32
2024-05-09T11:15:10.358Z,24.44
2024-05-09T11:16:10.295Z,24.43
2024-05-09T11:17:10.271Z,24.63
2024-05-09T11:18:10.328Z,24.59
2024-05-09T11:19:10.363Z,24.93
2024-05-09T11:20:16.747Z,24.82
2024-05-09T11:21:12.395Z,24.53
2024-05-09T11:22:10.233Z,24.53
2024-05-09T11:23:10.164Z,24.21
2024-05-09T11:24:11.551Z,24.24
2024-05-09T11:25:11.230Z,24.53
2024-05-09T11:26:10.147Z,24.51
2024-05-09T11:27:10.168Z,24.53
2024-05-09T11:28:10.292Z,24.96
2024-05-09T11:29:10.174Z,25.51
2024-05-09T11:30:17.227Z,26.07
2024-05-09T11:31:12.064Z,25.91
2024-05-09T11:32:10.101Z,26.13
2024-05-09T11:33:10.184Z,25.85
2024-05-09T11:34:10.115Z,25.76
2024-05-09T11:35:10.064Z,25.98
2024-05-09T11:36:10.095Z,26.42
2024-05-09T11:37:10.038Z,25.59
2024-05-09T11:38:09.991Z,25.33
2024-05-09T11:39:10.036Z,25.25
2024-05-09T11:40:16.807Z,24.26
2024-05-09T11:41:11.955Z,23.86
2024-05-09T11:42:09.951Z,23.69
2024-05-09T11:43:10.102Z,23.49
2024-05-09T11:44:09.935Z,22.99
2024-05-09T11:45:09.934Z,22.70
2024-05-09T11:46:09.991Z,22.61
2024-05-09T11:47:09.922Z,22.33
2024-05-09T11:48:09.999Z,22.28
2024-05-09T11:49:10.109Z,22.21
2024-05-09T11:50:16.012Z,22.38
2024-05-09T11:51:11.881Z,22.34
2024-05-09T11:52:09.914Z,22.10
2024-05-09T11:53:09.843Z,22.10
2024-05-09T11:54:09.873Z,22.06
2024-05-09T11:55:09.918Z,21.56
2024-05-09T11:56:09.826Z,22.33
2024-05-09T11:57:09.877Z,22.63
2024-05-09T11:58:09.874Z,23.56
2024-05-09T11:59:09.771Z,24.44
2024-05-09T12:00:14.779Z,25.06
2024-05-09T12:01:10.865Z,25.62
2024-05-09T12:02:10.046Z,26.26
2024-05-09T12:03:09.839Z,26.61
2024-05-09T12:04:09.988Z,26.01
2024-05-09T12:05:09.998Z,25.24
2024-05-09T12:06:09.776Z,25.29
2024-05-09T12:07:12.765Z,25.22
2024-05-09T12:08:10.768Z,24.59
2024-05-09T12:09:09.771Z,24.63
2024-05-09T12:10:16.500Z,24.61
2024-05-09T12:11:11.715Z,24.79
2024-05-09T12:12:09.710Z,24.66
2024-05-09T12:13:09.652Z,24.09
2024-05-09T12:14:10.640Z,23.25
2024-05-09T12:15:09.650Z,22.80
2024-05-09T12:16:09.730Z,22.99
2024-05-09T12:17:09.606Z,23.20
2024-05-09T12:18:09.661Z,23.07
2024-05-09T12:19:09.934Z,22.81
2024-05-09T12:20:17.492Z,22.84
2024-05-09T12:21:11.604Z,23.39
2024-05-09T12:22:09.911Z,24.04
2024-05-09T12:23:10.499Z,24.48
2024-05-09T12:24:09.575Z,25.00
2024-05-09T12:25:09.631Z,25.00
2024-05-09T12:26:09.534Z,25.34
2024-05-09T12:27:09.503Z,25.89
2024-05-09T12:28:09.611Z,26.03
2024-05-09T12:29:09.456Z,25.77
2024-05-09T12:30:14.135Z,25.61
2024-05-09T12:31:10.555Z,25.61
2024-05-09T12:32:09.569Z,25.54
2024-05-09T12:33:09.878Z,25.83
2024-05-09T12:34:09.553Z,25.92
2024-05-09T12:35:09.455Z,25.78
2024-05-09T12:36:09.427Z,25.96
2024-05-09T12:37:09.488Z,26.16
2024-05-09T12:38:09.384Z,25.61
2024-05-09T12:39:09.436Z,25.37
2024-05-09T12:40:18.466Z,25.12
2024-05-09T12:41:11.371Z,25.37
2024-05-09T12:42:11.022Z,25.36
2024-05-09T12:43:10.485Z,25.25
2024-05-09T12:44:09.349Z,25.00
2024-05-09T12:45:09.325Z,24.82
2024-05-09T12:46:09.473Z,24.75
2024-05-09T12:47:10.316Z,24.61
2024-05-09T12:48:09.416Z,24.59
2024-05-09T12:49:09.606Z,24.77
2024-05-09T12:50:18.886Z,25.11
2024-05-09T12:51:10.378Z,25.12
2024-05-09T12:52:09.519Z,25.24
2024-05-09T12:53:09.259Z,24.94
2024-05-09T12:54:09.212Z,24.61
2024-05-09T12:55:09.340Z,24.84
2024-05-09T12:56:09.610Z,24.96
2024-05-09T12:57:10.219Z,25.88
2024-05-09T12:58:09.259Z,26.67
2024-05-09T12:59:09.234Z,26.93
2024-05-09T13:00:17.098Z,27.47
2024-05-09T13:01:11.328Z,28.01
2024-05-09T13:02:09.451Z,28.43
2024-05-09T13:03:09.290Z,28.80
2024-05-09T13:04:09.301Z,29.25
2024-05-09T13:05:09.386Z,29.31
2024-05-09T13:06:09.111Z,29.24
2024-05-09T13:07:10.122Z,29.40
2024-05-09T13:08:09.124Z,28.56